Startpagina
METAR-TAF:

METAR-TAF

Vliegvelden :

Kasane Airport

Kasane, Botswana

breedte: 17-49S, lengte: 025-09E, hoogte: 968 m

Actueel weer

Dit bericht is 48 minuten geleden gemaakt, om 10:00 UTC
Wind 4 kt uit het westnoordwesten, variërend tussen het westen en het noorden
Temperatuur 28°C
Vochtigheid 17%
Druk 1022 hPa
Zicht 10 km of meer
geen wolken onder 1500 m en geen cumulonimbus

METAR: FBKE 251000Z 30004KT 260V010 CAVOK 28/01 Q1022

Tijdstip: 12:48 (10:48 UTC)

Verwachting

Dit bericht is 4 uur en het 48 minuten geleden gemaakt, om 06:00 UTC
Verwachting geldig van 25 om 09 UTC tot 25 om 18 UTC
Wind 4 kt uit het noordnoordwesten
Zicht 10 km of meer
geen wolken onder 1500 m en geen cumulonimbus

TAF: FBKE 250600Z 2509/2518 33004KT CAVOK

Waarnemingen en weersverwachtingen van meer dan 4000 vliegvelden (METAR en TAF).

De beschikbare stations zijn de gele en rode punten op de kaart.

Ga met uw muis naar het station om de naam te zien.

Klik dan om waarnemingen en weersverwachtingen te zien.

kaart wijzigen: klik op de groene knoppen met een zwart kruis om in te zoomen, op de groene knop met een streepje om uit te zoomen of op de groene pijlen voor aangrenzende kaarten.


METAR-TAF: